sensor_id;sensor_type;location;lat;lon;timestamp;temperature;humidity
4699;DHT22;33708;49.466;11.176;2022-10-13T00:01:48;8.40;82.00
4699;DHT22;33708;49.466;11.176;2022-10-13T00:04:13;8.40;83.80
4699;DHT22;33708;49.466;11.176;2022-10-13T00:06:39;8.50;83.20
4699;DHT22;33708;49.466;11.176;2022-10-13T00:09:04;8.50;82.40
4699;DHT22;33708;49.466;11.176;2022-10-13T00:11:30;8.30;81.70
4699;DHT22;33708;49.466;11.176;2022-10-13T00:14:01;8.30;82.20
4699;DHT22;33708;49.466;11.176;2022-10-13T00:16:28;8.20;78.40
4699;DHT22;33708;49.466;11.176;2022-10-13T00:18:54;8.20;78.80
4699;DHT22;33708;49.466;11.176;2022-10-13T00:21:23;8.20;80.60
4699;DHT22;33708;49.466;11.176;2022-10-13T00:23:50;8.30;82.90
4699;DHT22;33708;49.466;11.176;2022-10-13T00:26:17;8.30;80.60
4699;DHT22;33708;49.466;11.176;2022-10-13T00:28:42;8.40;81.00
4699;DHT22;33708;49.466;11.176;2022-10-13T00:31:20;8.30;77.80
4699;DHT22;33708;49.466;11.176;2022-10-13T00:33:46;8.10;74.50
4699;DHT22;33708;49.466;11.176;2022-10-13T00:36:12;8.10;75.20
4699;DHT22;33708;49.466;11.176;2022-10-13T00:38:37;7.90;73.90
4699;DHT22;33708;49.466;11.176;2022-10-13T00:41:04;7.90;73.00
4699;DHT22;33708;49.466;11.176;2022-10-13T00:46:31;7.80;71.40
4699;DHT22;33708;49.466;11.176;2022-10-13T00:49:05;7.80;72.60
4699;DHT22;33708;49.466;11.176;2022-10-13T00:51:40;7.70;68.70
4699;DHT22;33708;49.466;11.176;2022-10-13T00:54:09;7.60;68.80
4699;DHT22;33708;49.466;11.176;2022-10-13T00:56:36;7.60;69.20
4699;DHT22;33708;49.466;11.176;2022-10-13T00:59:04;7.70;73.40
4699;DHT22;33708;49.466;11.176;2022-10-13T01:01:32;7.60;66.80
4699;DHT22;33708;49.466;11.176;2022-10-13T01:03:58;7.50;66.30
4699;DHT22;33708;49.466;11.176;2022-10-13T01:06:24;7.70;80.50
4699;DHT22;33708;49.466;11.176;2022-10-13T01:08:50;7.60;69.20
4699;DHT22;33708;49.466;11.176;2022-10-13T01:17:18;7.70;66.40
4699;DHT22;33708;49.466;11.176;2022-10-13T01:31:19;7.80;65.00
4699;DHT22;33708;49.466;11.176;2022-10-13T01:34:01;7.80;65.20
4699;DHT22;33708;49.466;11.176;2022-10-13T01:39:15;8.00;66.20
4699;DHT22;33708;49.466;11.176;2022-10-13T01:41:50;8.00;68.30
4699;DHT22;33708;49.466;11.176;2022-10-13T01:44:28;8.10;66.80
4699;DHT22;33708;49.466;11.176;2022-10-13T01:46:55;8.20;68.50
4699;DHT22;33708;49.466;11.176;2022-10-13T01:49:25;8.10;69.60
4699;DHT22;33708;49.466;11.176;2022-10-13T01:51:53;8.10;82.90
4699;DHT22;33708;49.466;11.176;2022-10-13T01:54:20;8.10;67.90
4699;DHT22;33708;49.466;11.176;2022-10-13T01:56:53;8.10;70.10
4699;DHT22;33708;49.466;11.176;2022-10-13T01:59:19;8.00;66.90
4699;DHT22;33708;49.466;11.176;2022-10-13T02:07:30;8.30;70.20
4699;DHT22;33708;49.466;11.176;2022-10-13T02:12:35;8.40;71.50
4699;DHT22;33708;49.466;11.176;2022-10-13T02:15:06;8.50;69.70
4699;DHT22;33708;49.466;11.176;2022-10-13T02:17:34;8.20;67.60
4699;DHT22;33708;49.466;11.176;2022-10-13T02:20:00;8.10;66.70
4699;DHT22;33708;49.466;11.176;2022-10-13T02:22:32;8.20;68.70
4699;DHT22;33708;49.466;11.176;2022-10-13T02:24:58;8.10;69.90
4699;DHT22;33708;49.466;11.176;2022-10-13T02:27:24;8.20;69.40
4699;DHT22;33708;49.466;11.176;2022-10-13T02:29:55;8.10;69.00
4699;DHT22;33708;49.466;11.176;2022-10-13T02:32:22;8.10;67.90
4699;DHT22;33708;49.466;11.176;2022-10-13T02:34:48;8.10;67.70
4699;DHT22;33708;49.466;11.176;2022-10-13T02:37:14;8.20;70.90
4699;DHT22;33708;49.466;11.176;2022-10-13T02:39:40;8.30;73.00
4699;DHT22;33708;49.466;11.176;2022-10-13T02:42:06;8.40;73.50
4699;DHT22;33708;49.466;11.176;2022-10-13T02:44:31;8.10;67.80
4699;DHT22;33708;49.466;11.176;2022-10-13T02:46:57;8.20;67.70
4699;DHT22;33708;49.466;11.176;2022-10-13T02:49:23;8.10;67.90
4699;DHT22;33708;49.466;11.176;2022-10-13T02:51:48;8.20;67.10
4699;DHT22;33708;49.466;11.176;2022-10-13T02:54:14;8.20;69.80
4699;DHT22;33708;49.466;11.176;2022-10-13T02:56:39;8.10;67.40
4699;DHT22;33708;49.466;11.176;2022-10-13T02:59:05;8.10;69.10
4699;DHT22;33708;49.466;11.176;2022-10-13T03:01:31;8.00;69.20
4699;DHT22;33708;49.466;11.176;2022-10-13T03:03:57;8.10;69.10
4699;DHT22;33708;49.466;11.176;2022-10-13T03:06:23;8.20;71.80
4699;DHT22;33708;49.466;11.176;2022-10-13T03:08:48;8.20;69.20
4699;DHT22;33708;49.466;11.176;2022-10-13T03:11:14;8.30;70.50
4699;DHT22;33708;49.466;11.176;2022-10-13T03:13:40;8.40;70.60
4699;DHT22;33708;49.466;11.176;2022-10-13T03:16:06;8.50;72.60
4699;DHT22;33708;49.466;11.176;2022-10-13T03:18:31;8.60;75.90
4699;DHT22;33708;49.466;11.176;2022-10-13T03:21:02;8.80;77.20
4699;DHT22;33708;49.466;11.176;2022-10-13T03:23:28;8.80;76.90
4699;DHT22;33708;49.466;11.176;2022-10-13T03:25:54;8.90;77.10
4699;DHT22;33708;49.466;11.176;2022-10-13T03:28:21;8.70;75.60
4699;DHT22;33708;49.466;11.176;2022-10-13T03:30:47;8.70;75.20
4699;DHT22;33708;49.466;11.176;2022-10-13T03:33:13;8.50;74.60
4699;DHT22;33708;49.466;11.176;2022-10-13T03:35:38;8.60;78.20
4699;DHT22;33708;49.466;11.176;2022-10-13T03:38:04;8.40;76.80
4699;DHT22;33708;49.466;11.176;2022-10-13T03:40:29;8.40;75.80
4699;DHT22;33708;49.466;11.176;2022-10-13T03:42:55;8.40;76.50
4699;DHT22;33708;49.466;11.176;2022-10-13T03:45:21;8.40;76.10
4699;DHT22;33708;49.466;11.176;2022-10-13T03:47:46;8.50;78.00
4699;DHT22;33708;49.466;11.176;2022-10-13T03:50:12;8.60;80.40
4699;DHT22;33708;49.466;11.176;2022-10-13T03:52:37;8.80;84.20
4699;DHT22;33708;49.466;11.176;2022-10-13T03:55:03;8.80;82.90
4699;DHT22;33708;49.466;11.176;2022-10-13T03:57:29;8.90;82.40
4699;DHT22;33708;49.466;11.176;2022-10-13T03:59:55;8.80;81.50
4699;DHT22;33708;49.466;11.176;2022-10-13T04:02:22;9.00;82.80
4699;DHT22;33708;49.466;11.176;2022-10-13T04:04:48;9.00;83.30
4699;DHT22;33708;49.466;11.176;2022-10-13T04:07:14;9.10;83.90
4699;DHT22;33708;49.466;11.176;2022-10-13T04:09:40;9.20;86.40
4699;DHT22;33708;49.466;11.176;2022-10-13T04:12:06;9.30;86.80
4699;DHT22;33708;49.466;11.176;2022-10-13T04:14:32;9.30;86.10
4699;DHT22;33708;49.466;11.176;2022-10-13T04:16:58;9.20;86.00
4699;DHT22;33708;49.466;11.176;2022-10-13T04:19:24;9.10;85.80
4699;DHT22;33708;49.466;11.176;2022-10-13T04:21:50;9.00;86.40
4699;DHT22;33708;49.466;11.176;2022-10-13T04:24:15;9.10;88.20
4699;DHT22;33708;49.466;11.176;2022-10-13T04:26:42;9.20;88.30
4699;DHT22;33708;49.466;11.176;2022-10-13T04:29:10;9.10;96.90
4699;DHT22;33708;49.466;11.176;2022-10-13T04:31:36;9.10;89.40
4699;DHT22;33708;49.466;11.176;2022-10-13T04:34:02;9.20;89.60
4699;DHT22;33708;49.466;11.176;2022-10-13T04:36:28;9.20;90.40
4699;DHT22;33708;49.466;11.176;2022-10-13T04:38:54;9.50;92.60
4699;DHT22;33708;49.466;11.176;2022-10-13T04:41:20;9.70;93.80
4699;DHT22;33708;49.466;11.176;2022-10-13T04:43:47;10.00;94.70
4699;DHT22;33708;49.466;11.176;2022-10-13T04:46:19;10.00;93.90
4699;DHT22;33708;49.466;11.176;2022-10-13T04:48:46;10.10;94.50
4699;DHT22;33708;49.466;11.176;2022-10-13T04:51:17;10.20;95.00
4699;DHT22;33708;49.466;11.176;2022-10-13T04:53:43;10.30;94.70
4699;DHT22;33708;49.466;11.176;2022-10-13T04:56:12;10.40;95.80
4699;DHT22;33708;49.466;11.176;2022-10-13T04:58:39;10.50;95.80
4699;DHT22;33708;49.466;11.176;2022-10-13T05:01:07;10.50;95.30
4699;DHT22;33708;49.466;11.176;2022-10-13T05:03:33;10.50;94.80
4699;DHT22;33708;49.466;11.176;2022-10-13T05:05:59;10.30;92.70
4699;DHT22;33708;49.466;11.176;2022-10-13T05:08:25;10.00;92.50
4699;DHT22;33708;49.466;11.176;2022-10-13T05:10:59;9.90;92.50
4699;DHT22;33708;49.466;11.176;2022-10-13T05:13:26;9.90;93.30
4699;DHT22;33708;49.466;11.176;2022-10-13T05:15:52;10.10;94.00
4699;DHT22;33708;49.466;11.176;2022-10-13T05:18:17;10.30;94.90
4699;DHT22;33708;49.466;11.176;2022-10-13T05:20:43;10.40;94.90
4699;DHT22;33708;49.466;11.176;2022-10-13T05:23:09;10.50;95.50
4699;DHT22;33708;49.466;11.176;2022-10-13T05:25:36;10.40;94.60
4699;DHT22;33708;49.466;11.176;2022-10-13T05:28:04;10.30;94.20
4699;DHT22;33708;49.466;11.176;2022-10-13T05:30:29;10.30;94.20
4699;DHT22;33708;49.466;11.176;2022-10-13T05:32:55;10.50;95.40
4699;DHT22;33708;49.466;11.176;2022-10-13T05:35:22;10.60;95.60
4699;DHT22;33708;49.466;11.176;2022-10-13T05:37:48;10.70;96.30
4699;DHT22;33708;49.466;11.176;2022-10-13T05:40:13;10.80;95.90
4699;DHT22;33708;49.466;11.176;2022-10-13T05:42:40;10.60;95.20
4699;DHT22;33708;49.466;11.176;2022-10-13T05:45:08;10.70;95.90
4699;DHT22;33708;49.466;11.176;2022-10-13T07:15:42;12.30;99.90
4699;DHT22;33708;49.466;11.176;2022-10-13T07:18:08;12.40;99.90
4699;DHT22;33708;49.466;11.176;2022-10-13T07:20:34;12.30;99.90
4699;DHT22;33708;49.466;11.176;2022-10-13T07:23:00;12.50;99.90
4699;DHT22;33708;49.466;11.176;2022-10-13T07:25:25;12.40;99.90
4699;DHT22;33708;49.466;11.176;2022-10-13T07:27:51;12.20;99.90
4699;DHT22;33708;49.466;11.176;2022-10-13T07:30:17;12.30;99.90
4699;DHT22;33708;49.466;11.176;2022-10-13T07:32:43;12.40;99.90
4699;DHT22;33708;49.466;11.176;2022-10-13T07:35:09;12.60;99.90
4699;DHT22;33708;49.466;11.176;2022-10-13T07:37:36;12.50;99.90
4699;DHT22;33708;49.466;11.176;2022-10-13T07:40:02;12.70;99.90
4699;DHT22;33708;49.466;11.176;2022-10-13T07:42:28;12.80;99.90
4699;DHT22;33708;49.466;11.176;2022-10-13T07:44:54;12.80;99.90
4699;DHT22;33708;49.466;11.176;2022-10-13T07:47:19;12.90;99.90
4699;DHT22;33708;49.466;11.176;2022-10-13T07:49:45;12.90;99.90
4699;DHT22;33708;49.466;11.176;2022-10-13T07:52:10;12.90;99.90
4699;DHT22;33708;49.466;11.176;2022-10-13T07:54:36;12.90;99.90
4699;DHT22;33708;49.466;11.176;2022-10-13T07:57:02;13.10;99.90
4699;DHT22;33708;49.466;11.176;2022-10-13T07:59:27;13.20;99.90
4699;DHT22;33708;49.466;11.176;2022-10-13T08:01:53;13.20;99.90
4699;DHT22;33708;49.466;11.176;2022-10-13T08:04:19;13.10;99.90
4699;DHT22;33708;49.466;11.176;2022-10-13T08:06:45;13.20;99.90
4699;DHT22;33708;49.466;11.176;2022-10-13T08:09:11;13.40;99.90
4699;DHT22;33708;49.466;11.176;2022-10-13T08:11:37;13.80;99.90
4699;DHT22;33708;49.466;11.176;2022-10-13T08:14:03;14.20;99.90
4699;DHT22;33708;49.466;11.176;2022-10-13T08:16:30;15.10;99.90
4699;DHT22;33708;49.466;11.176;2022-10-13T08:18:57;15.50;99.90
4699;DHT22;33708;49.466;11.176;2022-10-13T08:21:23;15.40;99.90
4699;DHT22;33708;49.466;11.176;2022-10-13T08:23:49;15.20;99.90
4699;DHT22;33708;49.466;11.176;2022-10-13T08:26:25;15.40;99.90
4699;DHT22;33708;49.466;11.176;2022-10-13T08:28:52;15.40;99.90
4699;DHT22;33708;49.466;11.176;2022-10-13T08:31:18;15.30;99.90
4699;DHT22;33708;49.466;11.176;2022-10-13T08:33:44;15.10;99.90
4699;DHT22;33708;49.466;11.176;2022-10-13T08:36:13;14.90;86.00
4699;DHT22;33708;49.466;11.176;2022-10-13T08:38:39;14.90;94.40
4699;DHT22;33708;49.466;11.176;2022-10-13T08:49:52;14.60;92.90
4699;DHT22;33708;49.466;11.176;2022-10-13T08:52:26;14.70;93.00
4699;DHT22;33708;49.466;11.176;2022-10-13T08:54:53;14.50;93.00
4699;DHT22;33708;49.466;11.176;2022-10-13T08:57:20;14.90;94.40
4699;DHT22;33708;49.466;11.176;2022-10-13T08:59:46;15.20;95.30
4699;DHT22;33708;49.466;11.176;2022-10-13T09:02:28;15.40;94.00
4699;DHT22;33708;49.466;11.176;2022-10-13T09:04:56;15.40;92.60
4699;DHT22;33708;49.466;11.176;2022-10-13T09:07:28;15.50;91.60
4699;DHT22;33708;49.466;11.176;2022-10-13T09:09:55;15.70;91.30
4699;DHT22;33708;49.466;11.176;2022-10-13T09:12:21;15.70;89.10
4699;DHT22;33708;49.466;11.176;2022-10-13T09:14:57;15.60;88.20
4699;DHT22;33708;49.466;11.176;2022-10-13T09:17:24;15.40;87.50
4699;DHT22;33708;49.466;11.176;2022-10-13T09:20:06;15.30;87.20
4699;DHT22;33708;49.466;11.176;2022-10-13T09:22:39;15.40;87.10
4699;DHT22;33708;49.466;11.176;2022-10-13T09:27:59;15.20;83.90
4699;DHT22;33708;49.466;11.176;2022-10-13T09:30:38;15.00;83.00
4699;DHT22;33708;49.466;11.176;2022-10-13T09:35:43;14.70;82.60
4699;DHT22;33708;49.466;11.176;2022-10-13T09:38:16;14.70;83.30
4699;DHT22;33708;49.466;11.176;2022-10-13T09:40:42;14.80;84.50
4699;DHT22;33708;49.466;11.176;2022-10-13T09:43:24;15.00;85.90
4699;DHT22;33708;49.466;11.176;2022-10-13T09:45:52;14.90;84.20
4699;DHT22;33708;49.466;11.176;2022-10-13T09:48:36;14.70;83.90
4699;DHT22;33708;49.466;11.176;2022-10-13T09:51:02;14.80;85.00
4699;DHT22;33708;49.466;11.176;2022-10-13T09:53:37;14.80;85.30
4699;DHT22;33708;49.466;11.176;2022-10-13T09:56:17;14.70;83.50
4699;DHT22;33708;49.466;11.176;2022-10-13T09:58:57;15.10;89.30
4699;DHT22;33708;49.466;11.176;2022-10-13T10:01:28;15.50;90.00
4699;DHT22;33708;49.466;11.176;2022-10-13T10:03:56;15.90;89.30
4699;DHT22;33708;49.466;11.176;2022-10-13T10:06:22;16.00;85.90
4699;DHT22;33708;49.466;11.176;2022-10-13T10:09:02;16.00;82.40
4699;DHT22;33708;49.466;11.176;2022-10-13T10:11:37;15.90;82.90
4699;DHT22;33708;49.466;11.176;2022-10-13T10:14:27;16.10;81.80
4699;DHT22;33708;49.466;11.176;2022-10-13T10:20:00;16.50;81.10
4699;DHT22;33708;49.466;11.176;2022-10-13T10:22:35;16.70;92.10
4699;DHT22;33708;49.466;11.176;2022-10-13T10:27:38;16.30;71.90
4699;DHT22;33708;49.466;11.176;2022-10-13T10:30:16;16.20;70.50
4699;DHT22;33708;49.466;11.176;2022-10-13T10:36:01;15.90;69.00
4699;DHT22;33708;49.466;11.176;2022-10-13T10:42:07;15.60;69.50
4699;DHT22;33708;49.466;11.176;2022-10-13T10:44:13;15.70;70.60
4699;DHT22;33708;49.466;11.176;2022-10-13T10:46:46;15.80;71.40
4699;DHT22;33708;49.466;11.176;2022-10-13T10:49:31;15.90;70.80
4699;DHT22;33708;49.466;11.176;2022-10-13T10:51:59;16.40;73.80
4699;DHT22;33708;49.466;11.176;2022-10-13T10:57:36;16.10;66.30
4699;DHT22;33708;49.466;11.176;2022-10-13T11:00:16;16.30;68.60
4699;DHT22;33708;49.466;11.176;2022-10-13T11:02:50;16.50;70.80
4699;DHT22;33708;49.466;11.176;2022-10-13T11:05:20;16.40;65.70
4699;DHT22;33708;49.466;11.176;2022-10-13T11:21:08;16.90;65.20
4699;DHT22;33708;49.466;11.176;2022-10-13T11:23:34;17.30;64.60
4699;DHT22;33708;49.466;11.176;2022-10-13T11:26:30;17.80;65.50
4699;DHT22;33708;49.466;11.176;2022-10-13T11:28:57;17.90;53.80
4699;DHT22;33708;49.466;11.176;2022-10-13T11:31:29;18.00;51.70
4699;DHT22;33708;49.466;11.176;2022-10-13T11:33:57;18.10;49.80
4699;DHT22;33708;49.466;11.176;2022-10-13T11:36:47;18.40;51.30
4699;DHT22;33708;49.466;11.176;2022-10-13T11:44:45;18.50;43.40
4699;DHT22;33708;49.466;11.176;2022-10-13T11:55:55;17.90;34.70
4699;DHT22;33708;49.466;11.176;2022-10-13T12:00:57;18.50;34.90
4699;DHT22;33708;49.466;11.176;2022-10-13T12:03:29;18.60;32.10
4699;DHT22;33708;49.466;11.176;2022-10-13T12:06:03;18.80;32.00
4699;DHT22;33708;49.466;11.176;2022-10-13T12:08:36;18.60;28.20
4699;DHT22;33708;49.466;11.176;2022-10-13T12:11:04;18.70;29.00
4699;DHT22;33708;49.466;11.176;2022-10-13T12:13:33;18.40;28.50
4699;DHT22;33708;49.466;11.176;2022-10-13T12:16:05;18.30;27.80
4699;DHT22;33708;49.466;11.176;2022-10-13T12:18:39;18.30;28.60
4699;DHT22;33708;49.466;11.176;2022-10-13T12:21:17;18.20;27.20
4699;DHT22;33708;49.466;11.176;2022-10-13T12:23:44;17.90;28.00
4699;DHT22;33708;49.466;11.176;2022-10-13T12:26:19;17.90;29.40
4699;DHT22;33708;49.466;11.176;2022-10-13T12:28:53;17.80;27.60
4699;DHT22;33708;49.466;11.176;2022-10-13T12:31:28;17.70;28.10
4699;DHT22;33708;49.466;11.176;2022-10-13T12:33:58;17.70;24.40
4699;DHT22;33708;49.466;11.176;2022-10-13T12:36:27;17.80;28.40
4699;DHT22;33708;49.466;11.176;2022-10-13T12:38:55;18.00;27.10
4699;DHT22;33708;49.466;11.176;2022-10-13T12:41:25;18.00;25.30
4699;DHT22;33708;49.466;11.176;2022-10-13T12:43:52;18.00;25.40
4699;DHT22;33708;49.466;11.176;2022-10-13T12:46:41;17.90;24.20
4699;DHT22;33708;49.466;11.176;2022-10-13T12:49:16;18.00;26.70
4699;DHT22;33708;49.466;11.176;2022-10-13T12:51:44;17.80;23.10
4699;DHT22;33708;49.466;11.176;2022-10-13T12:54:25;18.10;26.30
4699;DHT22;33708;49.466;11.176;2022-10-13T12:56:55;18.20;26.50
4699;DHT22;33708;49.466;11.176;2022-10-13T12:59:22;18.40;25.20
4699;DHT22;33708;49.466;11.176;2022-10-13T13:01:57;18.10;23.10
4699;DHT22;33708;49.466;11.176;2022-10-13T13:07:02;18.10;23.90
4699;DHT22;33708;49.466;11.176;2022-10-13T13:09:36;18.10;23.50
4699;DHT22;33708;49.466;11.176;2022-10-13T13:19:33;18.00;25.50
4699;DHT22;33708;49.466;11.176;2022-10-13T13:21:59;18.00;25.60
4699;DHT22;33708;49.466;11.176;2022-10-13T13:24:25;17.90;25.10
4699;DHT22;33708;49.466;11.176;2022-10-13T13:26:51;18.00;25.60
4699;DHT22;33708;49.466;11.176;2022-10-13T13:29:16;18.30;25.50
4699;DHT22;33708;49.466;11.176;2022-10-13T13:31:42;18.40;25.00
4699;DHT22;33708;49.466;11.176;2022-10-13T13:34:07;18.50;23.70
4699;DHT22;33708;49.466;11.176;2022-10-13T13:36:33;18.60;24.10
4699;DHT22;33708;49.466;11.176;2022-10-13T13:38:59;18.50;23.20
4699;DHT22;33708;49.466;11.176;2022-10-13T13:41:24;18.40;22.50
4699;DHT22;33708;49.466;11.176;2022-10-13T13:43:52;18.60;24.80
4699;DHT22;33708;49.466;11.176;2022-10-13T13:46:24;18.60;23.90
4699;DHT22;33708;49.466;11.176;2022-10-13T13:48:50;18.40;21.50
4699;DHT22;33708;49.466;11.176;2022-10-13T13:51:16;18.30;22.30
4699;DHT22;33708;49.466;11.176;2022-10-13T13:53:42;18.10;23.60
4699;DHT22;33708;49.466;11.176;2022-10-13T13:56:16;18.30;23.30
4699;DHT22;33708;49.466;11.176;2022-10-13T13:58:42;18.10;21.70
4699;DHT22;33708;49.466;11.176;2022-10-13T14:01:09;18.00;22.70
4699;DHT22;33708;49.466;11.176;2022-10-13T14:03:35;17.80;23.10
4699;DHT22;33708;49.466;11.176;2022-10-13T14:06:00;17.80;23.30
4699;DHT22;33708;49.466;11.176;2022-10-13T14:08:30;17.80;24.70
4699;DHT22;33708;49.466;11.176;2022-10-13T14:10:55;17.60;24.10
4699;DHT22;33708;49.466;11.176;2022-10-13T14:13:21;17.60;23.50
4699;DHT22;33708;49.466;11.176;2022-10-13T14:15:58;17.60;25.00
4699;DHT22;33708;49.466;11.176;2022-10-13T14:18:24;17.60;26.30
4699;DHT22;33708;49.466;11.176;2022-10-13T14:20:50;17.60;26.90
4699;DHT22;33708;49.466;11.176;2022-10-13T14:23:16;17.60;27.80
4699;DHT22;33708;49.466;11.176;2022-10-13T14:25:41;17.50;29.50
4699;DHT22;33708;49.466;11.176;2022-10-13T14:28:07;17.30;28.60
4699;DHT22;33708;49.466;11.176;2022-10-13T14:30:32;17.20;29.90
4699;DHT22;33708;49.466;11.176;2022-10-13T14:32:58;17.10;29.90
4699;DHT22;33708;49.466;11.176;2022-10-13T14:35:24;17.00;29.60
4699;DHT22;33708;49.466;11.176;2022-10-13T14:37:50;17.00;31.10
4699;DHT22;33708;49.466;11.176;2022-10-13T14:40:16;17.00;32.10
4699;DHT22;33708;49.466;11.176;2022-10-13T14:42:42;17.00;34.10
4699;DHT22;33708;49.466;11.176;2022-10-13T14:45:08;17.00;33.50
4699;DHT22;33708;49.466;11.176;2022-10-13T14:47:33;17.00;35.60
4699;DHT22;33708;49.466;11.176;2022-10-13T14:49:59;17.00;35.60
4699;DHT22;33708;49.466;11.176;2022-10-13T14:52:26;17.00;37.40
4699;DHT22;33708;49.466;11.176;2022-10-13T14:54:52;17.00;38.20
4699;DHT22;33708;49.466;11.176;2022-10-13T14:57:17;17.00;38.90
4699;DHT22;33708;49.466;11.176;2022-10-13T14:59:44;17.10;38.60
4699;DHT22;33708;49.466;11.176;2022-10-13T15:02:10;16.90;36.60
4699;DHT22;33708;49.466;11.176;2022-10-13T15:04:37;16.90;38.50
4699;DHT22;33708;49.466;11.176;2022-10-13T15:07:03;16.80;37.60
4699;DHT22;33708;49.466;11.176;2022-10-13T15:09:28;16.80;39.80
4699;DHT22;33708;49.466;11.176;2022-10-13T15:11:54;16.80;39.40
4699;DHT22;33708;49.466;11.176;2022-10-13T15:14:20;16.70;40.60
4699;DHT22;33708;49.466;11.176;2022-10-13T15:16:45;16.80;42.00
4699;DHT22;33708;49.466;11.176;2022-10-13T15:19:11;16.70;41.80
4699;DHT22;33708;49.466;11.176;2022-10-13T15:21:36;16.50;40.60
4699;DHT22;33708;49.466;11.176;2022-10-13T15:24:02;16.50;45.20
4699;DHT22;33708;49.466;11.176;2022-10-13T15:26:28;16.50;46.30
4699;DHT22;33708;49.466;11.176;2022-10-13T15:28:53;16.60;46.20
4699;DHT22;33708;49.466;11.176;2022-10-13T15:31:20;16.60;46.60
4699;DHT22;33708;49.466;11.176;2022-10-13T15:33:48;16.50;46.40
4699;DHT22;33708;49.466;11.176;2022-10-13T15:36:16;16.40;46.10
4699;DHT22;33708;49.466;11.176;2022-10-13T15:38:41;16.30;47.70
4699;DHT22;33708;49.466;11.176;2022-10-13T15:41:08;16.30;50.20
4699;DHT22;33708;49.466;11.176;2022-10-13T15:43:34;16.20;50.90
4699;DHT22;33708;49.466;11.176;2022-10-13T15:46:26;16.00;52.20
4699;DHT22;33708;49.466;11.176;2022-10-13T15:48:53;15.90;54.50
4699;DHT22;33708;49.466;11.176;2022-10-13T15:51:21;15.80;54.20
4699;DHT22;33708;49.466;11.176;2022-10-13T15:53:47;15.70;56.10
4699;DHT22;33708;49.466;11.176;2022-10-13T15:56:14;15.70;57.50
4699;DHT22;33708;49.466;11.176;2022-10-13T15:58:39;15.70;59.30
4699;DHT22;33708;49.466;11.176;2022-10-13T16:01:09;15.70;61.50
4699;DHT22;33708;49.466;11.176;2022-10-13T16:03:35;15.70;63.10
4699;DHT22;33708;49.466;11.176;2022-10-13T16:06:03;15.60;65.70
4699;DHT22;33708;49.466;11.176;2022-10-13T16:08:30;15.50;68.60
4699;DHT22;33708;49.466;11.176;2022-10-13T16:10:55;15.30;71.50
4699;DHT22;33708;49.466;11.176;2022-10-13T16:13:21;15.10;74.20
4699;DHT22;33708;49.466;11.176;2022-10-13T16:15:57;14.80;77.00
4699;DHT22;33708;49.466;11.176;2022-10-13T16:18:27;14.70;82.50
4699;DHT22;33708;49.466;11.176;2022-10-13T16:20:53;14.60;82.90
4699;DHT22;33708;49.466;11.176;2022-10-13T16:23:19;14.50;86.40
4699;DHT22;33708;49.466;11.176;2022-10-13T16:25:44;14.40;88.80
4699;DHT22;33708;49.466;11.176;2022-10-13T16:28:12;14.40;90.50
4699;DHT22;33708;49.466;11.176;2022-10-13T16:30:38;14.30;90.80
4699;DHT22;33708;49.466;11.176;2022-10-13T16:33:04;14.20;90.60
4699;DHT22;33708;49.466;11.176;2022-10-13T16:35:29;14.30;90.60
4699;DHT22;33708;49.466;11.176;2022-10-13T16:37:55;14.40;93.00
4699;DHT22;33708;49.466;11.176;2022-10-13T16:40:20;14.30;93.60
4699;DHT22;33708;49.466;11.176;2022-10-13T16:42:46;14.30;93.10
4699;DHT22;33708;49.466;11.176;2022-10-13T16:45:12;14.40;94.30
4699;DHT22;33708;49.466;11.176;2022-10-13T16:47:38;14.50;94.80
4699;DHT22;33708;49.466;11.176;2022-10-13T16:50:04;14.60;95.50
4699;DHT22;33708;49.466;11.176;2022-10-13T16:52:36;14.70;95.20
4699;DHT22;33708;49.466;11.176;2022-10-13T16:55:03;14.60;93.70
4699;DHT22;33708;49.466;11.176;2022-10-13T16:57:29;14.60;94.60
4699;DHT22;33708;49.466;11.176;2022-10-13T16:59:55;14.50;95.00
4699;DHT22;33708;49.466;11.176;2022-10-13T17:02:21;14.60;95.70
4699;DHT22;33708;49.466;11.176;2022-10-13T17:04:46;14.50;95.70
4699;DHT22;33708;49.466;11.176;2022-10-13T17:07:12;14.50;95.40
4699;DHT22;33708;49.466;11.176;2022-10-13T17:09:38;14.50;96.10
4699;DHT22;33708;49.466;11.176;2022-10-13T17:12:04;14.50;96.70
4699;DHT22;33708;49.466;11.176;2022-10-13T17:14:30;14.50;97.20
4699;DHT22;33708;49.466;11.176;2022-10-13T17:16:56;14.50;97.50
4699;DHT22;33708;49.466;11.176;2022-10-13T17:19:21;14.40;96.80
4699;DHT22;33708;49.466;11.176;2022-10-13T17:21:47;14.40;97.80
4699;DHT22;33708;49.466;11.176;2022-10-13T17:24:15;14.40;97.90
4699;DHT22;33708;49.466;11.176;2022-10-13T17:26:40;14.30;98.30
4699;DHT22;33708;49.466;11.176;2022-10-13T17:29:06;14.20;98.60
4699;DHT22;33708;49.466;11.176;2022-10-13T17:31:32;14.10;98.50
4699;DHT22;33708;49.466;11.176;2022-10-13T17:33:58;14.00;98.30
4699;DHT22;33708;49.466;11.176;2022-10-13T17:36:26;13.80;98.70
4699;DHT22;33708;49.466;11.176;2022-10-13T17:38:53;13.80;98.90
4699;DHT22;33708;49.466;11.176;2022-10-13T17:41:20;13.90;99.90
4699;DHT22;33708;49.466;11.176;2022-10-13T17:43:47;14.00;99.90
4699;DHT22;33708;49.466;11.176;2022-10-13T17:46:18;13.80;99.90
4699;DHT22;33708;49.466;11.176;2022-10-13T17:48:44;13.70;99.90
4699;DHT22;33708;49.466;11.176;2022-10-13T17:51:12;13.60;99.90
4699;DHT22;33708;49.466;11.176;2022-10-13T17:53:39;13.60;99.90
4699;DHT22;33708;49.466;11.176;2022-10-13T17:56:07;13.60;99.90
4699;DHT22;33708;49.466;11.176;2022-10-13T17:58:38;13.50;99.90
4699;DHT22;33708;49.466;11.176;2022-10-13T18:01:09;13.50;99.90
4699;DHT22;33708;49.466;11.176;2022-10-13T18:03:36;13.50;99.90
4699;DHT22;33708;49.466;11.176;2022-10-13T18:06:05;13.60;99.90
4699;DHT22;33708;49.466;11.176;2022-10-13T18:08:32;13.70;99.90
4699;DHT22;33708;49.466;11.176;2022-10-13T18:11:06;13.70;99.90
4699;DHT22;33708;49.466;11.176;2022-10-13T18:13:33;13.40;99.90
4699;DHT22;33708;49.466;11.176;2022-10-13T18:16:06;13.30;99.90
4699;DHT22;33708;49.466;11.176;2022-10-13T18:18:33;13.10;99.90
4699;DHT22;33708;49.466;11.176;2022-10-13T18:21:03;13.00;99.90
4699;DHT22;33708;49.466;11.176;2022-10-13T18:23:31;13.10;99.90
4699;DHT22;33708;49.466;11.176;2022-10-13T18:26:06;13.10;99.90
4699;DHT22;33708;49.466;11.176;2022-10-13T18:28:34;13.20;99.90
4699;DHT22;33708;49.466;11.176;2022-10-13T18:31:14;13.20;99.90
4699;DHT22;33708;49.466;11.176;2022-10-13T18:33:40;13.30;99.90
4699;DHT22;33708;49.466;11.176;2022-10-13T18:36:13;13.30;99.90
4699;DHT22;33708;49.466;11.176;2022-10-13T18:38:39;13.30;99.90
4699;DHT22;33708;49.466;11.176;2022-10-13T18:41:05;13.10;99.90
4699;DHT22;33708;49.466;11.176;2022-10-13T18:43:30;13.10;99.90
4699;DHT22;33708;49.466;11.176;2022-10-13T18:46:03;13.10;99.90
4699;DHT22;33708;49.466;11.176;2022-10-13T18:48:29;13.20;99.90
4699;DHT22;33708;49.466;11.176;2022-10-13T18:50:55;13.10;99.90